createdAt,value
2018-12-11T00:01:41.366Z,245.00
2018-12-11T00:04:16.704Z,251.50
2018-12-11T00:06:49.805Z,247.50
2018-12-11T00:09:23.187Z,238.50
2018-12-11T00:11:56.179Z,241.50
2018-12-11T00:14:29.465Z,243.00
2018-12-11T00:17:02.355Z,243.25
2018-12-11T00:19:35.521Z,228.25
2018-12-11T00:22:08.449Z,239.00
2018-12-11T00:24:41.576Z,238.00
2018-12-11T00:27:14.688Z,234.75
2018-12-11T00:29:47.772Z,238.75
2018-12-11T00:32:21.484Z,242.00
2018-12-11T00:34:54.924Z,233.00
2018-12-11T00:37:28.226Z,240.25
2018-12-11T00:40:01.310Z,250.00
2018-12-11T00:42:34.594Z,246.25
2018-12-11T00:45:07.855Z,241.00
2018-12-11T00:47:41.002Z,226.00
2018-12-11T00:50:14.156Z,242.75
2018-12-11T00:52:47.199Z,249.25
2018-12-11T00:55:20.266Z,245.00
2018-12-11T00:57:53.193Z,251.75
2018-12-11T01:00:26.258Z,225.75
2018-12-11T01:02:59.933Z,243.00
2018-12-11T01:05:32.968Z,236.75
2018-12-11T01:08:06.218Z,256.00
2018-12-11T01:10:39.114Z,232.50
2018-12-11T01:13:12.207Z,238.00
2018-12-11T01:15:45.494Z,259.00
2018-12-11T01:18:18.681Z,302.75
2018-12-11T01:20:51.706Z,276.75
2018-12-11T01:23:24.998Z,315.75
2018-12-11T01:25:58.227Z,312.25
2018-12-11T01:28:31.290Z,313.75
2018-12-11T01:31:04.350Z,307.75
2018-12-11T01:33:38.181Z,263.25
2018-12-11T01:36:11.310Z,285.50
2018-12-11T01:38:45.739Z,307.50
2018-12-11T01:41:19.085Z,325.75
2018-12-11T01:43:52.584Z,304.00
2018-12-11T01:46:25.916Z,333.25
2018-12-11T01:48:59.404Z,323.25
2018-12-11T01:51:32.420Z,314.50
2018-12-11T01:54:05.818Z,358.25
2018-12-11T01:56:38.810Z,332.75
2018-12-11T01:59:12.146Z,345.25
2018-12-11T02:01:45.374Z,326.00
2018-12-11T02:04:19.402Z,304.25
2018-12-11T02:06:52.488Z,293.00
2018-12-11T02:09:26.315Z,327.75
2018-12-11T02:11:59.457Z,313.25
2018-12-11T02:14:32.507Z,363.00
2018-12-11T02:17:05.370Z,344.25
2018-12-11T02:19:38.503Z,349.25
2018-12-11T02:22:11.539Z,372.75
2018-12-11T02:24:44.663Z,350.25
2018-12-11T02:27:17.672Z,356.75
2018-12-11T02:29:50.893Z,347.25
2018-12-11T02:32:24.107Z,340.00
2018-12-11T02:34:57.877Z,358.00
2018-12-11T02:37:30.864Z,359.75
2018-12-11T02:40:04.150Z,386.50
2018-12-11T02:42:37.017Z,364.50
2018-12-11T02:45:10.786Z,389.50
2018-12-11T02:47:43.935Z,389.60
2018-12-11T02:50:17.231Z,393.80
2018-12-11T02:52:50.287Z,391.80
2018-12-11T02:55:23.515Z,385.60
2018-12-11T02:57:56.651Z,349.75
2018-12-11T03:00:29.797Z,366.25
2018-12-11T03:03:02.835Z,341.25
2018-12-11T03:05:36.437Z,324.50
2018-12-11T03:08:09.936Z,326.00
2018-12-11T03:10:43.833Z,355.50
2018-12-11T03:13:17.745Z,364.25
2018-12-11T03:15:51.076Z,376.25
2018-12-11T03:18:23.963Z,382.00
2018-12-11T03:20:57.020Z,381.20
2018-12-11T03:23:30.321Z,382.80
2018-12-11T03:26:04.129Z,394.00
2018-12-11T03:28:37.077Z,399.60
2018-12-11T03:31:10.270Z,439.25
2018-12-11T03:33:43.350Z,462.40
2018-12-11T03:36:17.153Z,485.20
2018-12-11T03:38:50.077Z,485.40
2018-12-11T03:41:23.550Z,447.80
2018-12-11T03:43:56.604Z,477.20
2018-12-11T03:46:30.496Z,420.20
2018-12-11T03:49:03.888Z,388.40
2018-12-11T03:51:36.928Z,366.25
2018-12-11T03:54:09.966Z,370.50
2018-12-11T03:56:43.198Z,367.00
2018-12-11T03:59:16.330Z,360.25
2018-12-11T04:01:49.767Z,382.00
2018-12-11T04:04:23.030Z,358.00
2018-12-11T04:06:57.034Z,368.00
2018-12-11T04:09:30.105Z,382.40
2018-12-11T04:12:03.428Z,366.00
2018-12-11T04:14:36.791Z,376.50
2018-12-11T04:17:10.800Z,381.50
2018-12-11T04:19:44.114Z,384.00
2018-12-11T04:22:17.026Z,387.60
2018-12-11T04:24:50.291Z,401.60
2018-12-11T04:27:23.581Z,417.80
2018-12-11T04:29:56.680Z,413.00
2018-12-11T04:32:29.678Z,397.00
2018-12-11T04:35:03.481Z,342.50
2018-12-11T04:37:37.295Z,370.50
2018-12-11T04:40:11.158Z,347.25
2018-12-11T04:42:45.557Z,329.50
2018-12-11T04:45:18.865Z,316.50
2018-12-11T04:47:52.303Z,312.25
2018-12-11T04:50:25.709Z,310.25
2018-12-11T04:52:59.386Z,289.00
2018-12-11T04:55:32.870Z,299.50
2018-12-11T04:58:06.115Z,309.25
2018-12-11T05:00:39.468Z,311.25
2018-12-11T05:03:13.423Z,317.25
2018-12-11T05:05:46.435Z,291.50
2018-12-11T05:08:19.926Z,302.50
2018-12-11T05:10:53.231Z,275.00
2018-12-11T05:13:26.621Z,265.00
2018-12-11T05:16:00.202Z,249.50
2018-12-11T05:18:33.485Z,286.75
2018-12-11T05:21:07.420Z,280.75
2018-12-11T05:23:40.752Z,287.75
2018-12-11T05:26:14.349Z,289.25
2018-12-11T05:28:47.615Z,288.00
2018-12-11T05:31:23.334Z,278.00
2018-12-11T05:33:57.853Z,302.00
2018-12-11T05:36:31.629Z,287.00
2018-12-11T05:39:06.980Z,309.25
2018-12-11T05:41:40.667Z,269.00
2018-12-11T05:53:14.660Z,267.25
2018-12-11T05:55:48.414Z,266.00
2018-12-11T05:58:21.968Z,285.25
2018-12-11T06:00:55.783Z,280.00
2018-12-11T06:03:32.191Z,263.50
2018-12-11T06:06:05.719Z,245.00
2018-12-11T06:08:40.335Z,246.25
2018-12-11T06:11:23.074Z,228.25
2018-12-11T06:13:56.315Z,255.75
2018-12-11T06:16:30.069Z,227.50
2018-12-11T06:19:04.270Z,235.50
2018-12-11T06:21:38.017Z,230.75
2018-12-11T06:24:11.312Z,224.75
2018-12-11T06:26:46.512Z,233.75
2018-12-11T06:29:20.064Z,205.00
2018-12-11T06:31:53.452Z,219.25
2018-12-11T06:34:26.877Z,215.50
2018-12-11T06:37:00.420Z,211.50
2018-12-11T06:39:33.818Z,197.50
2018-12-11T06:48:06.886Z,183.80
2018-12-11T06:50:40.907Z,189.75
2018-12-11T06:53:14.323Z,197.25
2018-12-11T06:55:48.772Z,198.75
2018-12-11T06:58:22.551Z,187.80
2018-12-11T07:00:56.623Z,183.25
2018-12-11T07:03:30.214Z,182.20
2018-12-11T07:06:03.629Z,192.25
2018-12-11T07:08:37.004Z,199.75
2018-12-11T07:11:10.292Z,174.60
2018-12-11T07:13:43.981Z,192.60
2018-12-11T07:16:18.357Z,215.50
2018-12-11T07:18:52.046Z,216.50
2018-12-11T07:21:26.056Z,200.00
2018-12-11T07:23:59.328Z,178.40
2018-12-11T07:26:32.771Z,180.40
2018-12-11T07:29:05.924Z,193.75
2018-12-11T07:31:38.990Z,190.75
2018-12-11T07:34:12.222Z,209.00
2018-12-11T07:36:45.644Z,199.75
2018-12-11T07:39:18.615Z,196.25
2018-12-11T07:41:52.299Z,164.80
2018-12-11T07:44:25.617Z,171.60
2018-12-11T07:46:59.295Z,166.40
2018-12-11T07:49:32.707Z,175.40
2018-12-11T07:52:06.746Z,170.60
2018-12-11T07:54:41.303Z,171.80
2018-12-11T07:57:15.751Z,178.80
2018-12-11T07:59:49.956Z,178.40
2018-12-11T08:02:23.793Z,183.40
2018-12-11T08:04:57.308Z,183.00
2018-12-11T08:07:31.168Z,185.60
2018-12-11T08:10:05.223Z,188.00
2018-12-11T08:12:39.215Z,186.20
2018-12-11T08:15:12.853Z,193.20
2018-12-11T08:17:46.303Z,197.75
2018-12-11T08:20:19.395Z,180.20
2018-12-11T08:22:53.057Z,183.60
2018-12-11T08:25:25.527Z,181.00
2018-12-11T08:27:58.343Z,175.80
2018-12-11T08:30:30.226Z,153.60
2018-12-11T08:33:02.133Z,177.00
2018-12-11T08:35:34.003Z,176.00
2018-12-11T08:38:05.872Z,164.60
2018-12-11T08:40:37.778Z,177.80
2018-12-11T08:43:09.327Z,176.40
2018-12-11T08:45:41.119Z,165.80
2018-12-11T08:48:12.590Z,167.80
2018-12-11T08:50:44.292Z,152.00
2018-12-11T08:53:16.304Z,153.40
2018-12-11T08:55:48.072Z,169.60
2018-12-11T08:58:20.885Z,153.40
2018-12-11T09:00:52.640Z,159.40
2018-12-11T09:03:24.165Z,158.60
2018-12-11T09:05:56.304Z,167.60
2018-12-11T09:08:27.883Z,156.80
2018-12-11T09:10:59.635Z,149.20
2018-12-11T09:13:31.171Z,157.00
2018-12-11T09:16:03.478Z,146.00
2018-12-11T09:18:35.101Z,156.60
2018-12-11T09:21:06.924Z,132.40
2018-12-11T09:23:39.062Z,155.00
2018-12-11T09:26:10.880Z,149.00
2018-12-11T09:28:43.053Z,149.00
2018-12-11T09:31:15.189Z,141.60
2018-12-11T09:33:46.611Z,154.00
2018-12-11T09:36:18.331Z,159.20
2018-12-11T09:38:49.838Z,141.00
2018-12-11T09:41:21.431Z,140.80
2018-12-11T09:43:53.005Z,141.20
2018-12-11T09:46:24.463Z,144.20
2018-12-11T09:48:56.179Z,133.20
2018-12-11T09:51:29.260Z,143.60
2018-12-11T09:54:04.119Z,144.80
2018-12-11T09:56:38.278Z,136.00
2018-12-11T09:59:10.330Z,143.00
2018-12-11T10:01:41.937Z,143.80
2018-12-11T10:04:13.586Z,142.20
2018-12-11T10:06:50.705Z,140.00
2018-12-11T10:09:31.420Z,148.20
2018-12-11T10:12:03.925Z,139.00
2018-12-11T10:14:35.437Z,127.80
2018-12-11T10:20:10.413Z,149.80
2018-12-11T10:22:45.692Z,132.60
2018-12-11T10:25:24.992Z,140.40
2018-12-11T10:28:00.427Z,146.00
2018-12-11T10:30:40.633Z,137.80
2018-12-11T10:33:16.011Z,136.00
2018-12-11T10:35:47.766Z,132.00
2018-12-11T10:38:23.880Z,142.80
2018-12-11T10:40:59.432Z,141.00
2018-12-11T10:43:36.291Z,139.60
2018-12-11T10:46:11.929Z,145.60
2018-12-11T10:48:46.977Z,154.80
2018-12-11T10:51:20.344Z,155.80
2018-12-11T10:53:56.811Z,145.40
2018-12-11T10:56:32.246Z,147.00
2018-12-11T10:59:10.234Z,150.40
2018-12-11T11:01:50.769Z,150.20
2018-12-11T11:04:25.619Z,149.40
2018-12-11T11:07:01.130Z,162.80
2018-12-11T11:09:35.909Z,154.00
2018-12-11T11:12:11.209Z,162.20
2018-12-11T11:14:46.365Z,161.00
2018-12-11T11:17:24.996Z,151.40
2018-12-11T11:20:00.400Z,156.40
2018-12-11T11:25:33.479Z,146.20
2018-12-11T11:28:10.235Z,162.40
2018-12-11T11:30:56.884Z,158.60
2018-12-11T11:33:37.059Z,152.60
2018-12-11T11:36:23.432Z,149.20
2018-12-11T11:38:55.962Z,137.20
2018-12-11T11:41:27.497Z,155.60
2018-12-11T11:44:10.158Z,157.20
2018-12-11T11:46:44.022Z,159.40
2018-12-11T11:49:19.544Z,164.00
2018-12-11T11:51:51.043Z,150.20
2018-12-11T11:54:23.646Z,142.00
2018-12-11T11:56:55.261Z,154.80
2018-12-11T11:59:27.149Z,149.00
2018-12-11T12:01:59.402Z,155.40
2018-12-11T12:04:32.053Z,140.60
2018-12-11T12:07:04.349Z,145.60
2018-12-11T12:09:37.467Z,153.40
2018-12-11T12:12:10.418Z,151.60
2018-12-11T12:14:41.989Z,152.40
2018-12-11T12:17:13.619Z,171.40
2018-12-11T12:19:45.139Z,168.20
2018-12-11T12:25:14.560Z,168.75
2018-12-11T12:27:46.112Z,163.80
2018-12-11T12:30:26.496Z,165.40
2018-12-11T12:32:58.111Z,182.00
2018-12-11T12:35:29.864Z,171.80
2018-12-11T12:38:01.385Z,176.20
2018-12-11T12:40:33.204Z,187.20
2018-12-11T12:43:04.801Z,185.50
2018-12-11T12:45:40.003Z,196.75
2018-12-11T12:48:11.518Z,188.25
2018-12-11T12:50:43.275Z,201.25
2018-12-11T12:53:14.857Z,197.25
2018-12-11T12:55:46.317Z,206.75
2018-12-11T12:58:17.943Z,197.00
2018-12-11T13:00:50.166Z,220.75
2018-12-11T13:03:21.900Z,237.75
2018-12-11T13:05:55.259Z,258.75
2018-12-11T13:08:28.154Z,257.25
2018-12-11T13:10:59.665Z,229.50
2018-12-11T13:13:31.533Z,245.75
2018-12-11T13:16:05.135Z,253.50
2018-12-11T13:18:40.320Z,304.00
2018-12-11T13:21:11.668Z,384.20
2018-12-11T13:23:43.540Z,380.60
2018-12-11T13:26:15.278Z,388.80
2018-12-11T13:28:46.738Z,363.00
2018-12-11T13:31:22.473Z,373.00
2018-12-11T13:33:57.271Z,357.40
2018-12-11T13:36:33.359Z,335.20
2018-12-11T13:39:09.264Z,313.25
2018-12-11T13:41:41.848Z,341.25
2018-12-11T13:44:13.756Z,325.25
2018-12-11T13:46:45.104Z,342.50
2018-12-11T13:49:17.571Z,377.40
2018-12-11T13:51:48.992Z,347.00
2018-12-11T13:54:20.563Z,359.00
2018-12-11T13:56:51.901Z,354.80
2018-12-11T13:59:24.380Z,308.25
2018-12-11T14:01:56.390Z,358.80
2018-12-11T14:04:30.077Z,345.00
2018-12-11T14:07:02.448Z,342.40
2018-12-11T14:09:42.418Z,344.00
2018-12-11T14:12:14.337Z,352.40
2018-12-11T14:15:01.600Z,369.80
2018-12-11T14:17:38.863Z,363.00
2018-12-11T14:23:18.455Z,362.20
2018-12-11T14:25:51.468Z,369.40
2018-12-11T14:28:23.288Z,373.60
2018-12-11T14:30:54.948Z,379.60
2018-12-11T14:33:26.974Z,353.80
2018-12-11T14:36:05.348Z,348.60
2018-12-11T14:38:40.712Z,354.60
2018-12-11T14:41:16.104Z,366.40
2018-12-11T14:43:52.392Z,364.75
2018-12-11T14:46:27.308Z,352.00
2018-12-11T14:48:58.891Z,349.75
2018-12-11T14:51:36.233Z,352.75
2018-12-11T14:54:14.013Z,342.50
2018-12-11T14:56:45.522Z,319.75
2018-12-11T14:59:29.118Z,340.75
2018-12-11T15:02:06.600Z,330.75
2018-12-11T15:04:46.011Z,319.00
2018-12-11T15:07:23.778Z,301.25
2018-12-11T15:09:58.678Z,303.50
2018-12-11T15:12:33.296Z,311.50
2018-12-11T15:15:05.133Z,308.00
2018-12-11T15:17:38.955Z,313.75
2018-12-11T15:20:16.370Z,307.00
2018-12-11T15:22:48.070Z,309.75
2018-12-11T15:25:28.400Z,304.75
2018-12-11T15:28:03.746Z,294.25
2018-12-11T15:30:35.373Z,319.00
2018-12-11T15:33:06.908Z,322.50
2018-12-11T15:35:44.089Z,322.00
2018-12-11T15:38:15.681Z,321.00
2018-12-11T15:40:47.304Z,308.25
2018-12-11T15:43:36.045Z,322.50
2018-12-11T15:46:07.833Z,333.50
2018-12-11T15:48:40.339Z,327.50
2018-12-11T15:51:12.361Z,335.75
2018-12-11T15:53:44.265Z,352.25
2018-12-11T15:56:16.450Z,338.00
2018-12-11T15:58:48.766Z,339.75
2018-12-11T16:01:20.665Z,318.50
2018-12-11T16:03:52.968Z,337.75
2018-12-11T16:06:26.129Z,336.75
2018-12-11T16:09:01.039Z,345.50
2018-12-11T16:11:35.401Z,359.25
2018-12-11T16:14:07.292Z,355.60
2018-12-11T16:16:39.389Z,339.50
2018-12-11T16:19:11.203Z,360.50
2018-12-11T16:21:43.419Z,370.00
2018-12-11T16:24:15.234Z,336.50
2018-12-11T16:26:47.121Z,357.00
2018-12-11T16:29:18.682Z,351.00
2018-12-11T16:31:50.671Z,363.25
2018-12-11T16:34:22.615Z,338.00
2018-12-11T16:36:54.869Z,355.75
2018-12-11T16:39:27.202Z,344.00
2018-12-11T16:42:00.059Z,362.75
2018-12-11T16:44:32.153Z,346.25
2018-12-11T16:47:04.140Z,353.75
2018-12-11T16:49:35.763Z,347.25
2018-12-11T16:52:15.299Z,345.00
2018-12-11T16:54:47.035Z,352.00
2018-12-11T16:57:19.783Z,325.25
2018-12-11T16:59:51.938Z,323.00
2018-12-11T17:02:23.782Z,348.50
2018-12-11T17:04:55.816Z,372.25
2018-12-11T17:07:28.332Z,361.75
2018-12-11T17:10:00.326Z,355.25
2018-12-11T17:12:33.235Z,363.75
2018-12-11T17:15:05.841Z,366.00
2018-12-11T17:17:37.994Z,335.50
2018-12-11T17:20:10.091Z,338.25
2018-12-11T17:22:41.920Z,346.00
2018-12-11T17:25:14.450Z,343.75
2018-12-11T17:27:46.436Z,331.75
2018-12-11T17:30:18.417Z,351.00
2018-12-11T17:32:50.535Z,333.50
2018-12-11T17:35:22.207Z,325.50
2018-12-11T17:37:54.491Z,323.50
2018-12-11T17:40:26.594Z,337.25
2018-12-11T17:42:58.224Z,329.25
2018-12-11T17:45:30.087Z,308.75
2018-12-11T17:48:02.557Z,303.25
2018-12-11T17:50:34.327Z,292.75
2018-12-11T17:53:06.423Z,279.00
2018-12-11T17:55:38.097Z,264.50
2018-12-11T17:58:10.010Z,261.50
2018-12-11T18:00:41.697Z,250.75
2018-12-11T18:03:14.475Z,262.75
2018-12-11T18:05:46.675Z,274.00
2018-12-11T18:08:20.047Z,270.50
2018-12-11T18:10:52.537Z,270.75
2018-12-11T18:13:24.534Z,264.50
2018-12-11T18:15:56.263Z,264.00
2018-12-11T18:18:28.212Z,252.00
2018-12-11T18:21:00.427Z,250.00
2018-12-11T18:23:32.315Z,254.25
2018-12-11T18:26:04.230Z,245.75
2018-12-11T18:28:36.164Z,237.50
2018-12-11T18:31:08.547Z,241.75
2018-12-11T18:33:40.273Z,237.50
2018-12-11T18:36:11.902Z,240.25
2018-12-11T18:38:45.587Z,249.00
2018-12-11T18:41:17.400Z,252.25
2018-12-11T18:43:49.300Z,219.75
2018-12-11T18:46:21.130Z,248.25
2018-12-11T18:48:53.293Z,239.00
2018-12-11T18:51:25.112Z,233.25
2018-12-11T18:53:56.860Z,242.00
2018-12-11T18:56:28.507Z,232.25
2018-12-11T18:59:00.433Z,254.25
2018-12-11T19:01:32.151Z,248.25
2018-12-11T19:04:04.075Z,252.00
2018-12-11T19:06:37.808Z,255.25
2018-12-11T19:09:11.221Z,249.00
2018-12-11T19:11:45.908Z,242.50
2018-12-11T19:14:18.288Z,259.25
2018-12-11T19:16:51.459Z,255.50
2018-12-11T19:19:23.508Z,241.00
2018-12-11T19:21:55.696Z,249.50
2018-12-11T19:27:44.873Z,243.75
2018-12-11T19:30:16.899Z,243.25
2018-12-11T19:32:50.820Z,230.75
2018-12-11T19:35:24.139Z,241.25
2018-12-11T19:37:59.328Z,228.75
2018-12-11T19:40:40.547Z,251.00
2018-12-11T19:43:08.856Z,238.50
2018-12-11T19:45:40.981Z,224.75
2018-12-11T19:48:12.810Z,229.75
2018-12-11T19:50:44.492Z,230.25
2018-12-11T19:53:16.690Z,244.75
2018-12-11T19:55:48.506Z,228.75
2018-12-11T19:58:20.423Z,227.50
2018-12-11T20:00:51.986Z,231.50
2018-12-11T20:03:24.266Z,236.25
2018-12-11T20:05:56.334Z,227.25
2018-12-11T20:08:31.066Z,233.50
2018-12-11T20:11:03.338Z,234.00
2018-12-11T20:13:35.438Z,249.50
2018-12-11T20:16:07.002Z,240.25
2018-12-11T20:18:39.491Z,245.25
2018-12-11T20:21:12.418Z,234.50
2018-12-11T20:23:45.400Z,253.75
2018-12-11T20:26:20.107Z,253.25
2018-12-11T20:28:52.720Z,246.00
2018-12-11T20:31:24.678Z,242.50
2018-12-11T20:33:57.072Z,271.25
2018-12-11T20:36:28.890Z,252.75
2018-12-11T20:39:00.975Z,265.25
2018-12-11T20:41:35.693Z,249.00
2018-12-11T20:44:07.793Z,272.50
2018-12-11T20:46:39.682Z,238.00
2018-12-11T20:49:11.433Z,274.75
2018-12-11T20:51:43.092Z,260.75
2018-12-11T20:54:15.285Z,288.75
2018-12-11T20:56:47.192Z,284.25
2018-12-11T20:59:19.084Z,280.25
2018-12-11T21:01:51.067Z,269.75
2018-12-11T21:04:23.239Z,254.75
2018-12-11T21:06:55.317Z,276.25
2018-12-11T21:09:27.163Z,276.00
2018-12-11T21:12:00.197Z,267.50
2018-12-11T21:14:32.891Z,270.75
2018-12-11T21:17:04.752Z,260.50
2018-12-11T21:19:36.615Z,257.00
2018-12-11T21:22:08.497Z,259.50
2018-12-11T21:24:40.362Z,256.00
2018-12-11T21:27:12.331Z,265.00
2018-12-11T21:29:44.289Z,258.25
2018-12-11T21:32:15.995Z,256.75
2018-12-11T21:34:47.955Z,269.00
2018-12-11T21:37:19.620Z,246.25
2018-12-11T21:39:51.431Z,256.25
2018-12-11T21:42:23.635Z,248.25
2018-12-11T21:44:56.705Z,250.75
2018-12-11T21:47:28.555Z,252.25
2018-12-11T21:50:00.384Z,272.25
2018-12-11T21:52:32.316Z,275.25
2018-12-11T21:55:04.288Z,268.75
2018-12-11T21:57:36.268Z,267.00
2018-12-11T22:00:10.473Z,261.00
2018-12-11T22:02:43.648Z,265.50
2018-12-11T22:05:15.420Z,258.25
2018-12-11T22:07:47.257Z,265.50
2018-12-11T22:10:19.257Z,262.25
2018-12-11T22:12:52.306Z,273.00
2018-12-11T22:15:24.078Z,259.75
2018-12-11T22:17:55.995Z,276.75
2018-12-11T22:20:27.552Z,275.50
2018-12-11T22:22:59.307Z,270.50
2018-12-11T22:25:30.918Z,280.25
2018-12-11T22:28:02.952Z,270.50
2018-12-11T22:30:34.861Z,272.50
2018-12-11T22:33:06.756Z,242.50
2018-12-11T22:35:38.542Z,266.75
2018-12-11T22:38:10.484Z,279.75
2018-12-11T22:40:42.179Z,277.00
2018-12-11T22:43:14.524Z,257.75
2018-12-11T22:45:46.324Z,260.75
2018-12-11T22:48:19.444Z,273.75
2018-12-11T22:50:51.406Z,273.75
2018-12-11T22:53:24.484Z,262.00
2018-12-11T22:55:56.259Z,279.25
2018-12-11T22:58:28.012Z,268.25
2018-12-11T23:00:59.858Z,262.50
2018-12-11T23:03:33.793Z,286.25
2018-12-11T23:06:06.051Z,272.25
2018-12-11T23:08:40.538Z,268.00
2018-12-11T23:11:12.458Z,261.75
2018-12-11T23:13:45.150Z,268.00
2018-12-11T23:16:16.959Z,285.00
2018-12-11T23:18:48.641Z,277.25
2018-12-11T23:21:20.615Z,260.25
2018-12-11T23:23:52.435Z,285.00
2018-12-11T23:26:24.432Z,274.50
2018-12-11T23:28:56.339Z,279.50
2018-12-11T23:31:28.398Z,276.25
2018-12-11T23:34:00.339Z,277.00
2018-12-11T23:36:32.293Z,262.25
2018-12-11T23:39:05.212Z,264.50
2018-12-11T23:41:39.289Z,284.75
2018-12-11T23:44:11.808Z,272.00
2018-12-11T23:46:43.910Z,271.25
2018-12-11T23:49:16.062Z,276.25
2018-12-11T23:51:48.297Z,265.25
2018-12-11T23:54:19.940Z,294.75
2018-12-11T23:56:51.932Z,274.50
2018-12-11T23:59:28.976Z,282.25
